sensor_id;sensor_type;location;lat;lon;timestamp;temperature;humidity
19033;DHT22;9649;51.042;13.804;2023-05-10T00:04:33;13.60;1.00
19033;DHT22;9649;51.042;13.804;2023-05-10T00:09:35;13.50;1.00
19033;DHT22;9649;51.042;13.804;2023-05-10T00:14:38;13.60;1.00
19033;DHT22;9649;51.042;13.804;2023-05-10T00:19:42;13.50;1.00
19033;DHT22;9649;51.042;13.804;2023-05-10T00:24:45;13.40;1.00
19033;DHT22;9649;51.042;13.804;2023-05-10T00:29:47;13.30;1.00
19033;DHT22;9649;51.042;13.804;2023-05-10T00:34:51;13.20;1.00
19033;DHT22;9649;51.042;13.804;2023-05-10T00:39:54;13.10;1.00
19033;DHT22;9649;51.042;13.804;2023-05-10T00:44:57;13.10;1.00
19033;DHT22;9649;51.042;13.804;2023-05-10T00:50:01;13.10;1.00
19033;DHT22;9649;51.042;13.804;2023-05-10T00:55:05;13.00;1.00
19033;DHT22;9649;51.042;13.804;2023-05-10T01:00:09;12.90;1.00
19033;DHT22;9649;51.042;13.804;2023-05-10T01:05:14;12.70;1.00
19033;DHT22;9649;51.042;13.804;2023-05-10T01:10:17;12.70;1.00
19033;DHT22;9649;51.042;13.804;2023-05-10T01:15:21;12.70;1.00
19033;DHT22;9649;51.042;13.804;2023-05-10T01:20:31;12.70;1.00
19033;DHT22;9649;51.042;13.804;2023-05-10T01:26:04;12.50;1.00
19033;DHT22;9649;51.042;13.804;2023-05-10T01:31:30;12.40;1.00
19033;DHT22;9649;51.042;13.804;2023-05-10T01:36:43;12.50;1.00
19033;DHT22;9649;51.042;13.804;2023-05-10T01:41:51;12.40;1.00
19033;DHT22;9649;51.042;13.804;2023-05-10T01:47:01;12.30;1.00
19033;DHT22;9649;51.042;13.804;2023-05-10T01:52:10;12.20;1.00
19033;DHT22;9649;51.042;13.804;2023-05-10T01:57:15;12.10;1.00
19033;DHT22;9649;51.042;13.804;2023-05-10T02:02:20;12.00;1.00
19033;DHT22;9649;51.042;13.804;2023-05-10T02:07:26;12.00;1.00
19033;DHT22;9649;51.042;13.804;2023-05-10T02:12:29;12.00;1.00
19033;DHT22;9649;51.042;13.804;2023-05-10T02:17:34;12.00;1.00
19033;DHT22;9649;51.042;13.804;2023-05-10T02:22:40;11.90;1.00
19033;DHT22;9649;51.042;13.804;2023-05-10T02:27:44;11.90;1.00
19033;DHT22;9649;51.042;13.804;2023-05-10T02:32:49;11.90;1.00
19033;DHT22;9649;51.042;13.804;2023-05-10T02:37:54;11.80;1.00
19033;DHT22;9649;51.042;13.804;2023-05-10T02:42:59;11.70;49.40
19033;DHT22;9649;51.042;13.804;2023-05-10T02:48:04;11.70;95.80
19033;DHT22;9649;51.042;13.804;2023-05-10T02:53:11;11.70;99.90
19033;DHT22;9649;51.042;13.804;2023-05-10T02:58:17;11.70;99.90
19033;DHT22;9649;51.042;13.804;2023-05-10T03:03:20;11.80;99.90
19033;DHT22;9649;51.042;13.804;2023-05-10T03:08:25;11.80;95.60
19033;DHT22;9649;51.042;13.804;2023-05-10T03:13:35;11.80;99.90
19033;DHT22;9649;51.042;13.804;2023-05-10T03:18:43;11.70;99.90
19033;DHT22;9649;51.042;13.804;2023-05-10T03:23:53;11.70;99.90
19033;DHT22;9649;51.042;13.804;2023-05-10T03:28:57;11.80;99.90
19033;DHT22;9649;51.042;13.804;2023-05-10T03:34:01;11.70;99.90
19033;DHT22;9649;51.042;13.804;2023-05-10T03:39:05;11.60;99.90
19033;DHT22;9649;51.042;13.804;2023-05-10T03:44:07;11.60;99.90
19033;DHT22;9649;51.042;13.804;2023-05-10T03:49:10;11.60;99.90
19033;DHT22;9649;51.042;13.804;2023-05-10T03:54:14;11.50;99.90
19033;DHT22;9649;51.042;13.804;2023-05-10T03:59:17;11.50;99.90
19033;DHT22;9649;51.042;13.804;2023-05-10T04:04:20;11.60;99.90
19033;DHT22;9649;51.042;13.804;2023-05-10T04:09:24;11.70;99.90
19033;DHT22;9649;51.042;13.804;2023-05-10T04:14:27;11.80;99.90
19033;DHT22;9649;51.042;13.804;2023-05-10T04:19:30;11.70;99.90
19033;DHT22;9649;51.042;13.804;2023-05-10T04:24:34;11.90;99.90
19033;DHT22;9649;51.042;13.804;2023-05-10T04:29:37;11.90;99.90
19033;DHT22;9649;51.042;13.804;2023-05-10T04:34:40;12.00;99.90
19033;DHT22;9649;51.042;13.804;2023-05-10T04:39:43;12.10;99.90
19033;DHT22;9649;51.042;13.804;2023-05-10T04:44:46;12.20;99.90
19033;DHT22;9649;51.042;13.804;2023-05-10T04:49:49;12.30;99.90
19033;DHT22;9649;51.042;13.804;2023-05-10T04:54:53;12.40;99.90
19033;DHT22;9649;51.042;13.804;2023-05-10T04:59:56;12.50;99.90
19033;DHT22;9649;51.042;13.804;2023-05-10T05:04:58;12.60;99.90
19033;DHT22;9649;51.042;13.804;2023-05-10T05:10:03;12.70;75.00
19033;DHT22;9649;51.042;13.804;2023-05-10T05:15:07;12.90;14.80
19033;DHT22;9649;51.042;13.804;2023-05-10T05:20:11;13.00;1.00
19033;DHT22;9649;51.042;13.804;2023-05-10T05:25:16;13.20;19.80
19033;DHT22;9649;51.042;13.804;2023-05-10T05:30:18;13.30;1.00
19033;DHT22;9649;51.042;13.804;2023-05-10T05:35:21;13.40;1.00
19033;DHT22;9649;51.042;13.804;2023-05-10T05:40:25;13.50;1.00
19033;DHT22;9649;51.042;13.804;2023-05-10T05:45:28;13.70;1.00
19033;DHT22;9649;51.042;13.804;2023-05-10T05:50:31;13.80;1.00
19033;DHT22;9649;51.042;13.804;2023-05-10T05:55:35;14.00;1.00
19033;DHT22;9649;51.042;13.804;2023-05-10T06:00:37;14.10;1.00
19033;DHT22;9649;51.042;13.804;2023-05-10T06:05:40;14.30;1.00
19033;DHT22;9649;51.042;13.804;2023-05-10T06:10:44;14.40;1.00
19033;DHT22;9649;51.042;13.804;2023-05-10T06:15:47;14.60;1.00
19033;DHT22;9649;51.042;13.804;2023-05-10T06:20:50;14.70;1.00
19033;DHT22;9649;51.042;13.804;2023-05-10T06:25:54;14.70;1.00
19033;DHT22;9649;51.042;13.804;2023-05-10T06:30:57;15.00;1.00
19033;DHT22;9649;51.042;13.804;2023-05-10T06:36:00;15.00;1.00
19033;DHT22;9649;51.042;13.804;2023-05-10T06:41:04;15.10;1.00
19033;DHT22;9649;51.042;13.804;2023-05-10T06:46:07;15.20;1.00
19033;DHT22;9649;51.042;13.804;2023-05-10T06:51:10;15.30;1.00
19033;DHT22;9649;51.042;13.804;2023-05-10T06:56:14;15.60;1.00
19033;DHT22;9649;51.042;13.804;2023-05-10T07:01:16;15.80;1.00
19033;DHT22;9649;51.042;13.804;2023-05-10T07:06:19;15.90;1.00
19033;DHT22;9649;51.042;13.804;2023-05-10T07:11:35;15.90;1.00
19033;DHT22;9649;51.042;13.804;2023-05-10T07:16:38;15.80;1.00
19033;DHT22;9649;51.042;13.804;2023-05-10T07:21:41;16.00;1.00
19033;DHT22;9649;51.042;13.804;2023-05-10T07:26:46;16.10;1.00
19033;DHT22;9649;51.042;13.804;2023-05-10T07:31:48;16.20;1.00
19033;DHT22;9649;51.042;13.804;2023-05-10T07:36:51;16.40;1.00
19033;DHT22;9649;51.042;13.804;2023-05-10T07:41:55;16.60;1.00
19033;DHT22;9649;51.042;13.804;2023-05-10T07:46:58;16.50;1.00
19033;DHT22;9649;51.042;13.804;2023-05-10T07:52:02;16.90;1.00
19033;DHT22;9649;51.042;13.804;2023-05-10T07:57:06;17.00;1.00
19033;DHT22;9649;51.042;13.804;2023-05-10T08:02:09;17.10;1.00
19033;DHT22;9649;51.042;13.804;2023-05-10T08:07:11;17.00;1.00
19033;DHT22;9649;51.042;13.804;2023-05-10T08:12:15;17.20;1.00
19033;DHT22;9649;51.042;13.804;2023-05-10T08:17:18;17.20;1.00
19033;DHT22;9649;51.042;13.804;2023-05-10T08:22:24;17.20;1.00
19033;DHT22;9649;51.042;13.804;2023-05-10T08:27:28;17.40;1.00
19033;DHT22;9649;51.042;13.804;2023-05-10T08:32:30;17.90;1.00
19033;DHT22;9649;51.042;13.804;2023-05-10T08:37:33;18.00;1.00
19033;DHT22;9649;51.042;13.804;2023-05-10T08:42:40;18.30;1.00
19033;DHT22;9649;51.042;13.804;2023-05-10T08:47:44;18.50;1.00
19033;DHT22;9649;51.042;13.804;2023-05-10T08:52:48;20.40;1.00
19033;DHT22;9649;51.042;13.804;2023-05-10T08:57:54;22.90;99.90
19033;DHT22;9649;51.042;13.804;2023-05-10T09:02:57;23.80;99.90
19033;DHT22;9649;51.042;13.804;2023-05-10T09:08:00;23.30;99.90
19033;DHT22;9649;51.042;13.804;2023-05-10T09:13:05;24.00;99.90
19033;DHT22;9649;51.042;13.804;2023-05-10T09:18:08;26.40;99.90
19033;DHT22;9649;51.042;13.804;2023-05-10T09:23:10;27.80;99.90
19033;DHT22;9649;51.042;13.804;2023-05-10T09:28:14;28.50;99.90
19033;DHT22;9649;51.042;13.804;2023-05-10T09:33:18;27.90;99.90
19033;DHT22;9649;51.042;13.804;2023-05-10T09:38:20;29.00;99.90
19033;DHT22;9649;51.042;13.804;2023-05-10T09:43:25;31.20;99.90
19033;DHT22;9649;51.042;13.804;2023-05-10T09:48:28;30.90;99.90
19033;DHT22;9649;51.042;13.804;2023-05-10T09:53:31;29.90;99.90
19033;DHT22;9649;51.042;13.804;2023-05-10T09:58:36;31.00;99.90
19033;DHT22;9649;51.042;13.804;2023-05-10T10:03:42;32.70;99.90
19033;DHT22;9649;51.042;13.804;2023-05-10T10:08:45;34.30;99.90
19033;DHT22;9649;51.042;13.804;2023-05-10T10:13:50;32.20;99.90
19033;DHT22;9649;51.042;13.804;2023-05-10T10:18:52;33.20;99.90
19033;DHT22;9649;51.042;13.804;2023-05-10T10:23:55;32.90;99.90
19033;DHT22;9649;51.042;13.804;2023-05-10T10:29:08;33.10;99.90
19033;DHT22;9649;51.042;13.804;2023-05-10T10:34:25;34.90;99.90
19033;DHT22;9649;51.042;13.804;2023-05-10T10:39:28;34.40;99.90
19033;DHT22;9649;51.042;13.804;2023-05-10T10:44:38;33.60;99.90
19033;DHT22;9649;51.042;13.804;2023-05-10T10:49:48;31.90;99.90
19033;DHT22;9649;51.042;13.804;2023-05-10T10:54:51;29.50;99.90
19033;DHT22;9649;51.042;13.804;2023-05-10T11:00:29;27.70;99.90
19033;DHT22;9649;51.042;13.804;2023-05-10T11:05:38;27.50;99.90
19033;DHT22;9649;51.042;13.804;2023-05-10T11:10:50;30.90;99.90
19033;DHT22;9649;51.042;13.804;2023-05-10T11:15:56;31.50;99.90
19033;DHT22;9649;51.042;13.804;2023-05-10T11:21:01;32.70;99.90
19033;DHT22;9649;51.042;13.804;2023-05-10T11:26:08;34.10;99.90
19033;DHT22;9649;51.042;13.804;2023-05-10T11:31:15;34.10;99.90
19033;DHT22;9649;51.042;13.804;2023-05-10T11:36:20;31.10;99.90
19033;DHT22;9649;51.042;13.804;2023-05-10T11:41:24;31.60;99.90
19033;DHT22;9649;51.042;13.804;2023-05-10T11:46:28;35.90;99.90
19033;DHT22;9649;51.042;13.804;2023-05-10T11:51:33;35.40;99.90
19033;DHT22;9649;51.042;13.804;2023-05-10T11:56:38;32.60;99.90
19033;DHT22;9649;51.042;13.804;2023-05-10T12:01:42;31.20;99.90
19033;DHT22;9649;51.042;13.804;2023-05-10T12:06:44;29.70;99.90
19033;DHT22;9649;51.042;13.804;2023-05-10T12:11:48;30.40;99.90
19033;DHT22;9649;51.042;13.804;2023-05-10T12:16:52;30.80;99.90
19033;DHT22;9649;51.042;13.804;2023-05-10T12:21:54;32.80;99.90
19033;DHT22;9649;51.042;13.804;2023-05-10T12:26:57;32.20;99.90
19033;DHT22;9649;51.042;13.804;2023-05-10T12:32:02;33.80;99.90
19033;DHT22;9649;51.042;13.804;2023-05-10T12:37:04;34.10;99.90
19033;DHT22;9649;51.042;13.804;2023-05-10T12:42:07;32.70;99.90
19033;DHT22;9649;51.042;13.804;2023-05-10T12:47:11;34.40;99.90
19033;DHT22;9649;51.042;13.804;2023-05-10T12:52:14;35.30;97.40
19033;DHT22;9649;51.042;13.804;2023-05-10T12:57:17;32.60;96.70
19033;DHT22;9649;51.042;13.804;2023-05-10T13:02:21;30.70;99.10
19033;DHT22;9649;51.042;13.804;2023-05-10T13:07:24;31.20;99.90
19033;DHT22;9649;51.042;13.804;2023-05-10T13:12:27;30.20;99.90
19033;DHT22;9649;51.042;13.804;2023-05-10T13:17:32;30.90;99.90
19033;DHT22;9649;51.042;13.804;2023-05-10T13:22:35;30.70;99.90
19033;DHT22;9649;51.042;13.804;2023-05-10T13:27:41;31.00;99.90
19033;DHT22;9649;51.042;13.804;2023-05-10T13:32:45;31.70;99.90
19033;DHT22;9649;51.042;13.804;2023-05-10T13:37:48;31.80;99.90
19033;DHT22;9649;51.042;13.804;2023-05-10T13:42:51;31.20;99.90
19033;DHT22;9649;51.042;13.804;2023-05-10T13:47:55;31.00;99.90
19033;DHT22;9649;51.042;13.804;2023-05-10T13:52:58;30.50;99.90
19033;DHT22;9649;51.042;13.804;2023-05-10T13:58:01;29.20;99.90
19033;DHT22;9649;51.042;13.804;2023-05-10T14:03:05;30.00;99.90
19033;DHT22;9649;51.042;13.804;2023-05-10T14:08:10;30.90;99.90
19033;DHT22;9649;51.042;13.804;2023-05-10T14:13:14;31.40;99.90
19033;DHT22;9649;51.042;13.804;2023-05-10T14:18:19;30.30;99.90
19033;DHT22;9649;51.042;13.804;2023-05-10T14:23:22;29.10;99.90
19033;DHT22;9649;51.042;13.804;2023-05-10T14:28:26;28.70;99.90
19033;DHT22;9649;51.042;13.804;2023-05-10T14:33:30;28.70;99.90
19033;DHT22;9649;51.042;13.804;2023-05-10T14:38:33;27.90;99.90
19033;DHT22;9649;51.042;13.804;2023-05-10T14:43:35;27.50;99.90
19033;DHT22;9649;51.042;13.804;2023-05-10T14:48:39;25.90;99.90
19033;DHT22;9649;51.042;13.804;2023-05-10T14:53:42;25.30;99.90
19033;DHT22;9649;51.042;13.804;2023-05-10T14:58:45;25.00;99.90
19033;DHT22;9649;51.042;13.804;2023-05-10T15:03:49;24.90;99.90
19033;DHT22;9649;51.042;13.804;2023-05-10T15:08:52;25.50;99.90
19033;DHT22;9649;51.042;13.804;2023-05-10T15:13:55;25.00;99.90
19033;DHT22;9649;51.042;13.804;2023-05-10T15:18:59;24.20;99.90
19033;DHT22;9649;51.042;13.804;2023-05-10T15:24:02;23.70;99.90
19033;DHT22;9649;51.042;13.804;2023-05-10T15:29:05;23.60;99.90
19033;DHT22;9649;51.042;13.804;2023-05-10T15:34:09;23.10;99.90
19033;DHT22;9649;51.042;13.804;2023-05-10T15:39:11;22.70;99.90
19033;DHT22;9649;51.042;13.804;2023-05-10T15:44:14;22.20;99.90
19033;DHT22;9649;51.042;13.804;2023-05-10T15:49:18;21.80;1.00
19033;DHT22;9649;51.042;13.804;2023-05-10T15:54:21;21.60;1.00
19033;DHT22;9649;51.042;13.804;2023-05-10T15:59:24;21.30;1.00
19033;DHT22;9649;51.042;13.804;2023-05-10T16:04:28;21.40;1.00
19033;DHT22;9649;51.042;13.804;2023-05-10T16:09:30;21.40;1.00
19033;DHT22;9649;51.042;13.804;2023-05-10T16:14:33;21.30;1.00
19033;DHT22;9649;51.042;13.804;2023-05-10T16:19:37;21.20;1.00
19033;DHT22;9649;51.042;13.804;2023-05-10T16:24:40;21.10;1.00
19033;DHT22;9649;51.042;13.804;2023-05-10T16:29:46;21.20;1.00
19033;DHT22;9649;51.042;13.804;2023-05-10T16:34:50;21.00;1.00
19033;DHT22;9649;51.042;13.804;2023-05-10T16:39:53;20.90;1.00
19033;DHT22;9649;51.042;13.804;2023-05-10T16:44:56;20.90;1.00
19033;DHT22;9649;51.042;13.804;2023-05-10T16:50:00;21.00;1.00
19033;DHT22;9649;51.042;13.804;2023-05-10T16:55:04;21.00;1.00
19033;DHT22;9649;51.042;13.804;2023-05-10T17:00:08;20.70;1.00
19033;DHT22;9649;51.042;13.804;2023-05-10T17:05:13;20.40;1.00
19033;DHT22;9649;51.042;13.804;2023-05-10T17:10:17;20.40;1.00
19033;DHT22;9649;51.042;13.804;2023-05-10T17:15:19;20.10;1.00
19033;DHT22;9649;51.042;13.804;2023-05-10T17:20:24;20.20;1.00
19033;DHT22;9649;51.042;13.804;2023-05-10T17:25:27;20.00;1.00
19033;DHT22;9649;51.042;13.804;2023-05-10T17:30:30;19.80;1.00
19033;DHT22;9649;51.042;13.804;2023-05-10T17:35:34;19.50;1.00
19033;DHT22;9649;51.042;13.804;2023-05-10T17:40:39;19.40;1.00
19033;DHT22;9649;51.042;13.804;2023-05-10T17:45:42;19.30;1.00
19033;DHT22;9649;51.042;13.804;2023-05-10T17:50:49;19.20;1.00
19033;DHT22;9649;51.042;13.804;2023-05-10T17:55:52;19.20;1.00
19033;DHT22;9649;51.042;13.804;2023-05-10T18:00:58;19.20;3.70
19033;DHT22;9649;51.042;13.804;2023-05-10T18:06:03;19.20;1.00
19033;DHT22;9649;51.042;13.804;2023-05-10T18:11:06;19.10;1.00
19033;DHT22;9649;51.042;13.804;2023-05-10T18:16:08;18.90;99.90
19033;DHT22;9649;51.042;13.804;2023-05-10T18:21:15;18.80;99.90
19033;DHT22;9649;51.042;13.804;2023-05-10T18:26:18;18.70;1.00
19033;DHT22;9649;51.042;13.804;2023-05-10T18:31:21;18.70;1.00
19033;DHT22;9649;51.042;13.804;2023-05-10T18:36:25;18.50;1.00
19033;DHT22;9649;51.042;13.804;2023-05-10T18:41:30;18.40;87.80
19033;DHT22;9649;51.042;13.804;2023-05-10T18:46:33;18.30;7.40
19033;DHT22;9649;51.042;13.804;2023-05-10T18:51:37;18.00;99.90
19033;DHT22;9649;51.042;13.804;2023-05-10T18:56:40;17.90;99.90
19033;DHT22;9649;51.042;13.804;2023-05-10T19:01:45;17.60;1.00
19033;DHT22;9649;51.042;13.804;2023-05-10T19:06:52;17.30;1.00
19033;DHT22;9649;51.042;13.804;2023-05-10T19:11:56;17.10;1.00
19033;DHT22;9649;51.042;13.804;2023-05-10T19:16:58;17.20;1.00
19033;DHT22;9649;51.042;13.804;2023-05-10T19:22:03;17.20;99.90
19033;DHT22;9649;51.042;13.804;2023-05-10T19:27:05;17.20;99.90
19033;DHT22;9649;51.042;13.804;2023-05-10T19:32:09;17.20;1.00
19033;DHT22;9649;51.042;13.804;2023-05-10T19:37:13;17.20;1.00
19033;DHT22;9649;51.042;13.804;2023-05-10T19:42:16;17.10;1.00
19033;DHT22;9649;51.042;13.804;2023-05-10T19:47:19;17.00;24.70
19033;DHT22;9649;51.042;13.804;2023-05-10T19:52:23;16.90;1.00
19033;DHT22;9649;51.042;13.804;2023-05-10T19:57:26;16.60;99.90
19033;DHT22;9649;51.042;13.804;2023-05-10T20:02:28;16.40;99.90
19033;DHT22;9649;51.042;13.804;2023-05-10T20:07:33;16.20;99.90
19033;DHT22;9649;51.042;13.804;2023-05-10T20:12:35;16.00;1.00
19033;DHT22;9649;51.042;13.804;2023-05-10T20:17:38;15.90;1.00
19033;DHT22;9649;51.042;13.804;2023-05-10T20:22:43;15.80;1.00
19033;DHT22;9649;51.042;13.804;2023-05-10T20:27:46;15.60;1.00
19033;DHT22;9649;51.042;13.804;2023-05-10T20:32:51;15.50;1.00
19033;DHT22;9649;51.042;13.804;2023-05-10T20:37:55;15.40;1.00
19033;DHT22;9649;51.042;13.804;2023-05-10T20:42:58;15.20;99.90
19033;DHT22;9649;51.042;13.804;2023-05-10T20:48:01;15.10;1.00
19033;DHT22;9649;51.042;13.804;2023-05-10T20:53:05;14.90;1.00
19033;DHT22;9649;51.042;13.804;2023-05-10T20:58:08;14.80;1.00
19033;DHT22;9649;51.042;13.804;2023-05-10T21:03:10;14.70;1.00
19033;DHT22;9649;51.042;13.804;2023-05-10T21:08:14;14.80;1.00
19033;DHT22;9649;51.042;13.804;2023-05-10T21:13:17;14.70;1.00
19033;DHT22;9649;51.042;13.804;2023-05-10T21:18:20;14.50;1.00
19033;DHT22;9649;51.042;13.804;2023-05-10T21:23:24;14.50;1.00
19033;DHT22;9649;51.042;13.804;2023-05-10T21:28:27;14.50;1.00
19033;DHT22;9649;51.042;13.804;2023-05-10T21:33:30;14.30;1.00
19033;DHT22;9649;51.042;13.804;2023-05-10T21:38:34;14.30;1.00
19033;DHT22;9649;51.042;13.804;2023-05-10T21:43:36;14.40;1.00
19033;DHT22;9649;51.042;13.804;2023-05-10T21:48:39;14.40;1.00
19033;DHT22;9649;51.042;13.804;2023-05-10T21:53:43;14.40;1.00
19033;DHT22;9649;51.042;13.804;2023-05-10T21:58:46;14.30;1.00
19033;DHT22;9649;51.042;13.804;2023-05-10T22:03:49;14.30;1.00
19033;DHT22;9649;51.042;13.804;2023-05-10T22:08:53;14.20;1.00
19033;DHT22;9649;51.042;13.804;2023-05-10T22:13:56;14.10;1.00
19033;DHT22;9649;51.042;13.804;2023-05-10T22:18:58;14.00;1.00
19033;DHT22;9649;51.042;13.804;2023-05-10T22:24:03;13.80;1.00
19033;DHT22;9649;51.042;13.804;2023-05-10T22:29:05;13.80;1.00
19033;DHT22;9649;51.042;13.804;2023-05-10T22:34:08;13.60;1.00
19033;DHT22;9649;51.042;13.804;2023-05-10T22:39:12;13.50;6.20
19033;DHT22;9649;51.042;13.804;2023-05-10T22:44:15;13.50;13.90
19033;DHT22;9649;51.042;13.804;2023-05-10T22:49:18;13.30;90.80
19033;DHT22;9649;51.042;13.804;2023-05-10T22:54:22;13.20;98.00
19033;DHT22;9649;51.042;13.804;2023-05-10T22:59:26;13.40;19.50
19033;DHT22;9649;51.042;13.804;2023-05-10T23:04:29;13.40;10.60
19033;DHT22;9649;51.042;13.804;2023-05-10T23:09:33;13.30;34.10
19033;DHT22;9649;51.042;13.804;2023-05-10T23:14:35;13.20;52.80
19033;DHT22;9649;51.042;13.804;2023-05-10T23:19:38;13.00;99.90
19033;DHT22;9649;51.042;13.804;2023-05-10T23:24:42;13.20;46.80
19033;DHT22;9649;51.042;13.804;2023-05-10T23:29:45;13.10;89.30
19033;DHT22;9649;51.042;13.804;2023-05-10T23:34:47;13.10;72.50
19033;DHT22;9649;51.042;13.804;2023-05-10T23:39:52;13.00;90.90
19033;DHT22;9649;51.042;13.804;2023-05-10T23:44:54;12.80;99.90
19033;DHT22;9649;51.042;13.804;2023-05-10T23:49:57;12.80;99.90
19033;DHT22;9649;51.042;13.804;2023-05-10T23:55:01;12.70;99.90
